createdAt,value
2022-10-13T00:00:42.061Z,95609.28
2022-10-13T00:03:09.178Z,95601.81
2022-10-13T00:05:41.055Z,95603.69
2022-10-13T00:08:07.700Z,95602.19
2022-10-13T00:10:42.542Z,95600.53
2022-10-13T00:13:11.494Z,95598.66
2022-10-13T00:15:44.009Z,95603.09
2022-10-13T00:18:11.013Z,95605.31
2022-10-13T00:20:42.702Z,95603.44
2022-10-13T00:23:09.379Z,95610.13
2022-10-13T00:25:40.104Z,95614.44
2022-10-13T00:28:06.693Z,95603.94
2022-10-13T00:30:37.107Z,95607.03
2022-10-13T00:33:03.866Z,95602.56
2022-10-13T00:35:30.412Z,95606.22
2022-10-13T00:37:57.088Z,95601.91
2022-10-13T00:40:26.797Z,95600.19
2022-10-13T00:42:53.362Z,95595.94
2022-10-13T00:45:22.092Z,95594.91
2022-10-13T00:47:55.324Z,95593.72
2022-10-13T00:50:27.523Z,95594.78
2022-10-13T00:52:57.290Z,95597.47
2022-10-13T00:55:30.180Z,95595.84
2022-10-13T00:58:04.953Z,95603.44
2022-10-13T01:00:33.243Z,95595.59
2022-10-13T01:03:00.779Z,95587.06
2022-10-13T01:05:28.611Z,95596.06
2022-10-13T01:07:56.821Z,95599.56
2022-10-13T01:10:29.786Z,95602.06
2022-10-13T01:12:59.440Z,95611.09
2022-10-13T01:15:38.447Z,95613.53
2022-10-13T01:18:20.568Z,95618.88
2022-10-13T01:20:47.454Z,95610.66
2022-10-13T01:23:44.870Z,95601.19
2022-10-13T01:26:26.592Z,95603.16
2022-10-13T01:29:02.443Z,95608.16
2022-10-13T01:31:43.350Z,95606.41
2022-10-13T01:34:15.615Z,95606.53
2022-10-13T01:37:14.194Z,95609.78
2022-10-13T01:39:44.156Z,95602.88
2022-10-13T01:42:22.062Z,95600.19
2022-10-13T01:44:52.995Z,95603.59
2022-10-13T01:47:22.032Z,95598.25
2022-10-13T01:49:52.092Z,95602.00
2022-10-13T01:52:22.761Z,95592.78
2022-10-13T01:54:53.276Z,95596.41
2022-10-13T01:57:39.716Z,95595.94
2022-10-13T02:00:11.100Z,95592.16
2022-10-13T02:03:18.302Z,95596.75
2022-10-13T02:05:56.723Z,95600.59
2022-10-13T02:08:38.226Z,95595.47
2022-10-13T02:11:04.884Z,95596.97
2022-10-13T02:13:33.825Z,95600.25
2022-10-13T02:16:01.912Z,95594.41
2022-10-13T02:18:34.373Z,95595.59
2022-10-13T02:21:03.703Z,95598.16
2022-10-13T02:23:31.348Z,95599.91
2022-10-13T02:25:59.706Z,95588.56
2022-10-13T02:28:27.605Z,95581.59
2022-10-13T02:30:54.174Z,95585.94
2022-10-13T02:33:20.756Z,95589.59
2022-10-13T02:35:47.293Z,95584.88
2022-10-13T02:38:13.890Z,95587.09
2022-10-13T02:40:40.486Z,95586.94
2022-10-13T02:43:07.244Z,95592.09
2022-10-13T02:45:33.785Z,95591.13
2022-10-13T02:48:00.515Z,95585.44
2022-10-13T02:50:27.175Z,95580.16
2022-10-13T02:52:56.382Z,95584.09
2022-10-13T02:55:23.035Z,95585.06
2022-10-13T02:57:55.834Z,95582.34
2022-10-13T03:00:22.957Z,95576.25
2022-10-13T03:02:49.660Z,95574.97
2022-10-13T03:05:17.123Z,95579.03
2022-10-13T03:07:43.681Z,95574.44
2022-10-13T03:10:10.293Z,95572.53
2022-10-13T03:12:36.891Z,95563.34
2022-10-13T03:15:03.945Z,95560.34
2022-10-13T03:17:30.488Z,95563.63
2022-10-13T03:19:57.098Z,95563.13
2022-10-13T03:22:23.751Z,95564.38
2022-10-13T03:24:52.037Z,95568.19
2022-10-13T03:27:18.630Z,95569.56
2022-10-13T03:29:45.167Z,95569.28
2022-10-13T03:32:11.798Z,95578.94
2022-10-13T03:34:38.371Z,95573.88
2022-10-13T03:37:04.973Z,95583.13
2022-10-13T03:39:39.052Z,95573.94
2022-10-13T03:42:06.245Z,95579.63
2022-10-13T03:44:33.243Z,95574.38
2022-10-13T03:46:59.838Z,95577.63
2022-10-13T03:49:26.566Z,95582.09
2022-10-13T03:51:53.124Z,95572.72
2022-10-13T03:54:19.760Z,95578.75
2022-10-13T03:56:48.203Z,95580.75
2022-10-13T03:59:16.995Z,95583.34
2022-10-13T04:01:43.583Z,95586.34
2022-10-13T04:04:11.820Z,95587.03
2022-10-13T04:06:42.233Z,95586.19
2022-10-13T04:09:09.575Z,95590.41
2022-10-13T04:11:36.394Z,95599.53
2022-10-13T04:14:03.014Z,95596.28
2022-10-13T04:16:30.918Z,95596.28
2022-10-13T04:19:03.941Z,95587.75
2022-10-13T04:21:33.425Z,95584.78
2022-10-13T04:24:01.049Z,95587.34
2022-10-13T04:26:30.016Z,95583.00
2022-10-13T04:28:57.341Z,95582.19
2022-10-13T04:31:24.959Z,95589.66
2022-10-13T04:33:52.117Z,95585.19
2022-10-13T04:36:19.432Z,95591.84
2022-10-13T04:38:49.517Z,95586.44
2022-10-13T04:41:17.651Z,95587.25
2022-10-13T04:43:47.245Z,95583.47
2022-10-13T04:46:16.723Z,95581.28
2022-10-13T04:48:43.303Z,95580.47
2022-10-13T04:51:15.559Z,95577.38
2022-10-13T04:53:42.989Z,95578.19
2022-10-13T04:56:14.598Z,95582.38
2022-10-13T04:58:42.635Z,95574.13
2022-10-13T05:01:18.861Z,95587.00
2022-10-13T05:03:50.099Z,95579.03
2022-10-13T05:06:18.787Z,95581.59
2022-10-13T05:08:48.212Z,95579.81
2022-10-13T05:11:16.469Z,95572.91
2022-10-13T05:13:43.219Z,95571.28
2022-10-13T05:16:12.855Z,95580.94
2022-10-13T05:18:39.968Z,95566.25
2022-10-13T05:21:22.147Z,95578.22
2022-10-13T05:23:48.988Z,95579.00
2022-10-13T05:26:18.106Z,95573.84
2022-10-13T05:28:45.467Z,95577.00
2022-10-13T05:31:21.575Z,95573.59
2022-10-13T05:33:48.797Z,95577.78
2022-10-13T05:36:30.082Z,95581.06
2022-10-13T05:38:59.641Z,95581.34
2022-10-13T05:41:27.549Z,95576.59
2022-10-13T05:43:57.421Z,95579.97
2022-10-13T05:46:24.684Z,95577.41
2022-10-13T05:48:51.488Z,95577.69
2022-10-13T05:51:22.448Z,95574.53
2022-10-13T05:53:57.793Z,95571.03
2022-10-13T05:56:29.848Z,95571.75
2022-10-13T05:59:02.581Z,95578.38
2022-10-13T06:01:34.042Z,95576.91
2022-10-13T06:04:04.309Z,95577.44
2022-10-13T06:06:31.721Z,95576.38
2022-10-13T06:08:59.951Z,95574.59
2022-10-13T06:11:26.666Z,95581.78
2022-10-13T06:13:53.285Z,95573.78
2022-10-13T06:16:19.890Z,95584.13
2022-10-13T06:18:47.459Z,95571.31
2022-10-13T06:21:14.228Z,95572.81
2022-10-13T06:23:40.822Z,95567.13
2022-10-13T06:26:09.041Z,95574.47
2022-10-13T06:28:37.171Z,95570.22
2022-10-13T06:31:07.576Z,95576.38
2022-10-13T06:33:34.717Z,95568.88
2022-10-13T06:36:05.279Z,95571.75
2022-10-13T06:38:32.841Z,95576.75
2022-10-13T06:41:03.774Z,95574.41
2022-10-13T06:43:38.898Z,95580.03
2022-10-13T06:46:10.836Z,95580.03
2022-10-13T06:48:38.073Z,95572.53
2022-10-13T06:51:07.237Z,95576.59
2022-10-13T06:53:34.174Z,95571.28
2022-10-13T06:56:03.250Z,95569.81
2022-10-13T06:58:29.870Z,95574.53
2022-10-13T07:00:56.580Z,95575.63
2022-10-13T07:03:24.029Z,95580.13
2022-10-13T07:05:50.709Z,95576.41
2022-10-13T07:08:17.327Z,95567.88
2022-10-13T07:10:43.887Z,95572.63
2022-10-13T07:13:10.660Z,95558.03
2022-10-13T07:15:39.270Z,95564.13
2022-10-13T07:18:06.998Z,95567.53
2022-10-13T07:20:34.062Z,95568.88
2022-10-13T07:23:00.989Z,95562.59
2022-10-13T07:25:27.673Z,95564.91
2022-10-13T07:27:54.255Z,95566.66
2022-10-13T07:30:21.123Z,95564.44
2022-10-13T07:32:48.571Z,95563.91
2022-10-13T07:35:15.218Z,95562.53
2022-10-13T07:37:41.837Z,95563.72
2022-10-13T07:40:09.067Z,95558.97
2022-10-13T07:42:35.965Z,95562.38
2022-10-13T07:45:02.548Z,95560.69
2022-10-13T07:47:29.254Z,95553.63
2022-10-13T07:49:55.934Z,95555.81
2022-10-13T07:52:22.859Z,95549.44
2022-10-13T07:54:50.660Z,95543.44
2022-10-13T07:57:17.374Z,95546.19
2022-10-13T07:59:44.031Z,95551.06
2022-10-13T08:02:12.970Z,95554.34
2022-10-13T08:04:39.800Z,95552.19
2022-10-13T08:07:06.679Z,95556.56
2022-10-13T08:09:33.764Z,95571.09
2022-10-13T08:12:01.776Z,95570.19
2022-10-13T08:14:30.145Z,95569.47
2022-10-13T08:16:58.014Z,95567.56
2022-10-13T08:19:26.401Z,95565.50
2022-10-13T08:21:58.096Z,95561.44
2022-10-13T08:24:26.750Z,95558.28
2022-10-13T08:26:53.470Z,95568.75
2022-10-13T08:29:23.151Z,95558.41
2022-10-13T08:31:52.469Z,95565.63
2022-10-13T08:34:19.659Z,95560.84
2022-10-13T08:36:46.239Z,95552.78
2022-10-13T08:39:13.981Z,95548.44
2022-10-13T08:41:45.869Z,95548.81
2022-10-13T08:47:26.774Z,95549.44
2022-10-13T08:50:00.617Z,95548.44
2022-10-13T08:52:41.917Z,95547.34
2022-10-13T08:55:17.941Z,95538.31
2022-10-13T08:57:44.700Z,95537.00
2022-10-13T09:00:13.252Z,95538.53
2022-10-13T09:02:43.415Z,95537.63
2022-10-13T09:05:16.307Z,95533.22
2022-10-13T09:07:45.965Z,95536.66
2022-10-13T09:10:14.551Z,95531.97
2022-10-13T09:12:41.164Z,95533.72
2022-10-13T09:15:10.836Z,95543.78
2022-10-13T09:17:40.598Z,95541.28
2022-10-13T09:20:16.147Z,95527.94
2022-10-13T09:22:43.361Z,95531.56
2022-10-13T09:25:22.328Z,95528.81
2022-10-13T09:27:54.975Z,95527.91
2022-10-13T09:30:25.867Z,95529.84
2022-10-13T09:33:13.546Z,95533.09
2022-10-13T09:35:49.039Z,95525.78
2022-10-13T09:38:21.506Z,95523.22
2022-10-13T09:40:57.519Z,95517.63
2022-10-13T09:43:37.985Z,95525.91
2022-10-13T09:46:25.905Z,95520.72
2022-10-13T09:48:55.545Z,95517.53
2022-10-13T09:51:41.974Z,95519.34
2022-10-13T09:54:35.024Z,95524.72
2022-10-13T09:57:09.795Z,95507.03
2022-10-13T09:59:51.758Z,95515.47
2022-10-13T10:02:34.873Z,95514.06
2022-10-13T10:05:18.449Z,95515.50
2022-10-13T10:07:48.454Z,95509.16
2022-10-13T10:10:40.308Z,95504.91
2022-10-13T10:13:13.479Z,95504.84
2022-10-13T10:15:55.191Z,95512.38
2022-10-13T10:18:45.438Z,95509.81
2022-10-13T10:22:04.016Z,95511.06
2022-10-13T10:24:33.262Z,95510.94
2022-10-13T10:27:03.709Z,95511.84
2022-10-13T10:29:58.506Z,95508.16
2022-10-13T10:32:37.242Z,95509.91
2022-10-13T10:35:21.168Z,95503.34
2022-10-13T10:37:50.335Z,95504.81
2022-10-13T10:40:31.482Z,95498.31
2022-10-13T10:43:16.360Z,95484.63
2022-10-13T10:45:45.139Z,95485.66
2022-10-13T10:48:25.697Z,95486.25
2022-10-13T10:50:53.795Z,95476.63
2022-10-13T10:53:46.090Z,95473.78
2022-10-13T10:56:21.764Z,95467.66
2022-10-13T10:59:07.885Z,95468.59
2022-10-13T11:01:45.223Z,95463.56
2022-10-13T11:04:30.007Z,95461.69
2022-10-13T11:06:56.558Z,95452.91
2022-10-13T11:09:41.468Z,95453.53
2022-10-13T11:12:23.337Z,95450.28
2022-10-13T11:15:11.189Z,95448.19
2022-10-13T11:17:43.816Z,95448.19
2022-10-13T11:20:22.593Z,95437.34
2022-10-13T11:23:12.208Z,95440.63
2022-10-13T11:25:46.707Z,95436.75
2022-10-13T11:28:22.445Z,95445.38
2022-10-13T11:31:18.470Z,95435.50
2022-10-13T11:33:47.784Z,95440.78
2022-10-13T11:36:42.034Z,95434.44
2022-10-13T11:42:13.154Z,95429.56
2022-10-13T11:45:03.010Z,95423.16
2022-10-13T11:47:38.659Z,95423.56
2022-10-13T11:50:08.081Z,95420.22
2022-10-13T11:53:10.646Z,95411.09
2022-10-13T11:55:58.238Z,95404.69
2022-10-13T11:58:30.599Z,95401.13
2022-10-13T12:01:07.538Z,95401.44
2022-10-13T12:03:37.997Z,95394.25
2022-10-13T12:06:24.145Z,95395.97
2022-10-13T12:08:52.119Z,95389.94
2022-10-13T12:11:27.881Z,95394.81
2022-10-13T12:13:55.520Z,95385.16
2022-10-13T12:16:22.550Z,95382.78
2022-10-13T12:18:50.197Z,95380.66
2022-10-13T12:21:19.876Z,95389.22
2022-10-13T12:23:48.256Z,95381.47
2022-10-13T12:26:22.067Z,95381.38
2022-10-13T12:28:50.878Z,95381.94
2022-10-13T12:31:21.169Z,95379.72
2022-10-13T12:33:56.287Z,95374.28
2022-10-13T12:36:30.299Z,95369.84
2022-10-13T12:39:04.103Z,95363.19
2022-10-13T12:41:33.271Z,95369.06
2022-10-13T12:44:03.896Z,95360.28
2022-10-13T12:46:43.212Z,95360.78
2022-10-13T12:49:32.974Z,95361.78
2022-10-13T12:52:09.792Z,95359.25
2022-10-13T12:54:39.370Z,95354.25
2022-10-13T12:57:20.670Z,95352.31
2022-10-13T12:59:47.266Z,95345.91
2022-10-13T13:02:25.397Z,95348.59
2022-10-13T13:04:52.019Z,95349.38
2022-10-13T13:07:30.727Z,95346.44
2022-10-13T13:10:08.079Z,95337.78
2022-10-13T13:12:38.097Z,95343.63
2022-10-13T13:15:25.360Z,95337.88
2022-10-13T13:17:58.414Z,95341.75
2022-10-13T13:20:32.273Z,95333.88
2022-10-13T13:22:59.836Z,95329.13
2022-10-13T13:25:26.921Z,95333.72
2022-10-13T13:27:53.595Z,95332.13
2022-10-13T13:30:22.489Z,95336.03
2022-10-13T13:32:49.933Z,95330.63
2022-10-13T13:35:16.631Z,95331.91
2022-10-13T13:37:48.013Z,95331.69
2022-10-13T13:40:20.291Z,95332.31
2022-10-13T13:42:47.061Z,95328.56
2022-10-13T13:45:15.054Z,95331.38
2022-10-13T13:47:42.175Z,95329.63
2022-10-13T13:50:21.997Z,95327.19
2022-10-13T13:52:56.335Z,95320.75
2022-10-13T13:55:23.353Z,95320.56
2022-10-13T13:57:49.960Z,95318.16
2022-10-13T14:00:17.459Z,95317.75
2022-10-13T14:02:49.522Z,95310.25
2022-10-13T14:05:16.246Z,95306.03
2022-10-13T14:07:42.868Z,95312.06
2022-10-13T14:10:10.518Z,95312.22
2022-10-13T14:12:38.092Z,95319.75
2022-10-13T14:15:05.425Z,95309.13
2022-10-13T14:17:32.017Z,95308.59
2022-10-13T14:20:00.103Z,95306.84
2022-10-13T14:22:27.066Z,95308.47
2022-10-13T14:24:53.802Z,95309.81
2022-10-13T14:27:20.425Z,95307.28
2022-10-13T14:29:47.187Z,95301.50
2022-10-13T14:32:15.662Z,95307.16
2022-10-13T14:34:42.227Z,95300.56
2022-10-13T14:37:08.808Z,95298.66
2022-10-13T14:39:35.356Z,95294.75
2022-10-13T14:42:01.993Z,95294.94
2022-10-13T14:44:28.581Z,95298.63
2022-10-13T14:46:55.165Z,95295.34
2022-10-13T14:49:21.797Z,95296.22
2022-10-13T14:51:50.425Z,95288.69
2022-10-13T14:54:17.888Z,95285.09
2022-10-13T14:56:44.899Z,95287.22
2022-10-13T14:59:12.567Z,95289.88
2022-10-13T15:01:41.527Z,95289.38
2022-10-13T15:04:09.138Z,95289.97
2022-10-13T15:06:39.774Z,95294.94
2022-10-13T15:11:35.883Z,95294.44
2022-10-13T15:14:02.504Z,95291.41
2022-10-13T15:16:33.304Z,95296.13
2022-10-13T15:19:00.349Z,95293.44
2022-10-13T15:21:27.025Z,95290.59
2022-10-13T15:23:53.618Z,95290.19
2022-10-13T15:26:20.751Z,95299.41
2022-10-13T15:28:50.411Z,95296.31
2022-10-13T15:31:18.373Z,95293.25
2022-10-13T15:33:47.246Z,95297.19
2022-10-13T15:36:14.288Z,95293.31
2022-10-13T15:38:41.127Z,95287.69
2022-10-13T15:41:07.843Z,95287.38
2022-10-13T15:43:34.982Z,95288.69
2022-10-13T15:46:21.291Z,95290.19
2022-10-13T15:48:49.311Z,95288.25
2022-10-13T15:51:18.327Z,95292.19
2022-10-13T15:53:45.408Z,95282.25
2022-10-13T15:56:12.208Z,95287.31
2022-10-13T15:58:38.864Z,95294.00
2022-10-13T16:01:09.984Z,95286.88
2022-10-13T16:03:37.035Z,95286.25
2022-10-13T16:06:05.920Z,95283.19
2022-10-13T16:08:35.207Z,95277.19
2022-10-13T16:11:01.735Z,95279.00
2022-10-13T16:13:28.308Z,95281.13
2022-10-13T16:15:59.783Z,95283.09
2022-10-13T16:18:30.523Z,95282.16
2022-10-13T16:20:57.497Z,95281.34
2022-10-13T16:23:24.585Z,95280.03
2022-10-13T16:25:56.858Z,95283.63
2022-10-13T16:28:31.371Z,95289.34
2022-10-13T16:31:17.265Z,95292.09
2022-10-13T16:33:45.403Z,95291.44
2022-10-13T16:36:14.887Z,95294.69
2022-10-13T16:38:45.685Z,95300.38
2022-10-13T16:41:20.338Z,95295.00
2022-10-13T16:43:48.112Z,95295.81
2022-10-13T16:46:17.100Z,95302.28
2022-10-13T16:48:44.948Z,95304.41
2022-10-13T16:51:17.062Z,95296.94
2022-10-13T16:53:48.183Z,95303.75
2022-10-13T16:56:14.973Z,95305.69
2022-10-13T16:58:45.246Z,95301.16
2022-10-13T17:01:12.761Z,95304.84
2022-10-13T17:03:40.126Z,95304.06
2022-10-13T17:06:07.004Z,95301.91
2022-10-13T17:08:33.855Z,95301.25
2022-10-13T17:11:02.649Z,95304.00
2022-10-13T17:13:31.232Z,95307.72
2022-10-13T17:15:58.672Z,95305.94
2022-10-13T17:18:26.855Z,95307.22
2022-10-13T17:20:55.416Z,95301.88
2022-10-13T17:23:22.783Z,95316.75
2022-10-13T17:25:49.507Z,95315.44
2022-10-13T17:28:16.568Z,95313.31
2022-10-13T17:30:43.346Z,95312.19
2022-10-13T17:33:12.503Z,95311.22
2022-10-13T17:35:40.755Z,95309.13
2022-10-13T17:38:07.358Z,95312.00
2022-10-13T17:40:35.923Z,95313.47
2022-10-13T17:43:02.903Z,95312.19
2022-10-13T17:45:33.766Z,95308.13
2022-10-13T17:48:00.587Z,95306.22
2022-10-13T17:50:29.998Z,95307.19
2022-10-13T17:52:56.538Z,95309.53
2022-10-13T17:55:23.092Z,95303.91
2022-10-13T17:57:49.712Z,95305.78
2022-10-13T18:00:16.598Z,95305.63
2022-10-13T18:02:44.816Z,95302.66
2022-10-13T18:05:11.396Z,95303.94
2022-10-13T18:07:37.938Z,95305.63
2022-10-13T18:10:05.447Z,95303.50
2022-10-13T18:12:32.660Z,95299.09
2022-10-13T18:14:59.219Z,95295.44
2022-10-13T18:17:25.775Z,95293.44
2022-10-13T18:19:53.197Z,95292.69
2022-10-13T18:22:19.824Z,95302.47
2022-10-13T18:24:46.747Z,95288.28
2022-10-13T18:27:13.307Z,95296.00
2022-10-13T18:29:39.960Z,95287.19
2022-10-13T18:32:06.536Z,95288.88
2022-10-13T18:34:33.234Z,95291.97
2022-10-13T18:36:59.882Z,95291.09
2022-10-13T18:39:28.706Z,95292.69
2022-10-13T18:41:59.524Z,95289.91
2022-10-13T18:44:33.855Z,95283.88
2022-10-13T18:47:00.524Z,95289.63
2022-10-13T18:49:33.189Z,95287.66
2022-10-13T18:52:01.168Z,95284.47
2022-10-13T18:54:28.505Z,95286.53
2022-10-13T18:56:55.070Z,95288.34
2022-10-13T18:59:21.852Z,95286.50
2022-10-13T19:01:48.656Z,95271.00
2022-10-13T19:04:16.774Z,95271.44
2022-10-13T19:06:44.070Z,95269.88
2022-10-13T19:09:15.830Z,95273.50
2022-10-13T19:11:42.470Z,95272.19
2022-10-13T19:14:11.907Z,95260.59
2022-10-13T19:16:40.712Z,95265.44
2022-10-13T19:19:11.057Z,95266.56
2022-10-13T19:21:38.279Z,95268.34
2022-10-13T19:24:07.351Z,95269.31
2022-10-13T19:26:35.367Z,95275.44
2022-10-13T19:29:08.597Z,95273.50
2022-10-13T19:31:39.445Z,95267.25
2022-10-13T19:34:10.017Z,95264.19
2022-10-13T19:36:40.431Z,95273.50
2022-10-13T19:39:34.322Z,95274.47
2022-10-13T19:42:00.938Z,95273.81
2022-10-13T19:44:27.492Z,95273.00
2022-10-13T19:46:55.055Z,95273.06
2022-10-13T19:49:27.460Z,95272.28
2022-10-13T19:51:54.797Z,95274.09
2022-10-13T19:54:22.137Z,95276.00
2022-10-13T19:56:49.644Z,95276.66
2022-10-13T19:59:17.566Z,95275.28
2022-10-13T20:01:44.473Z,95273.56
2022-10-13T20:04:15.963Z,95272.25
2022-10-13T20:06:45.235Z,95272.91
2022-10-13T20:09:13.905Z,95274.41
2022-10-13T20:11:40.809Z,95270.69
2022-10-13T20:14:07.393Z,95271.22
2022-10-13T20:16:34.809Z,95270.91
2022-10-13T20:19:01.515Z,95269.66
2022-10-13T20:21:28.813Z,95269.66
2022-10-13T20:23:56.596Z,95264.06
2022-10-13T20:26:24.443Z,95269.88
2022-10-13T20:28:52.464Z,95266.19
2022-10-13T20:31:21.910Z,95269.44
2022-10-13T20:33:52.491Z,95263.31
2022-10-13T20:36:20.285Z,95267.06
2022-10-13T20:38:48.276Z,95269.66
2022-10-13T20:41:17.018Z,95261.75
2022-10-13T20:43:45.226Z,95262.41
2022-10-13T20:46:12.466Z,95263.44
2022-10-13T20:49:08.689Z,95262.94
2022-10-13T20:51:30.636Z,95269.69
2022-10-13T20:54:00.444Z,95262.94
2022-10-13T20:56:27.278Z,95255.16
2022-10-13T20:58:54.327Z,95258.59
2022-10-13T21:01:23.873Z,95253.97
2022-10-13T21:03:54.478Z,95249.09
2022-10-13T21:06:22.382Z,95254.06
2022-10-13T21:08:49.133Z,95256.13
2022-10-13T21:11:20.185Z,95261.91
2022-10-13T21:13:47.969Z,95268.50
2022-10-13T21:16:23.365Z,95272.34
2022-10-13T21:18:51.457Z,95272.25
2022-10-13T21:21:20.936Z,95280.22
2022-10-13T21:24:01.436Z,95284.94
2022-10-13T21:26:30.580Z,95287.59
2022-10-13T21:28:57.889Z,95296.97
2022-10-13T21:31:25.629Z,95312.19
2022-10-13T21:33:54.388Z,95313.13
2022-10-13T21:36:29.655Z,95319.47
2022-10-13T21:39:01.836Z,95325.22
2022-10-13T21:41:29.138Z,95329.75
2022-10-13T21:43:56.438Z,95336.72
2022-10-13T21:46:28.748Z,95352.88
2022-10-13T21:48:59.524Z,95353.72
2022-10-13T21:51:29.575Z,95345.22
2022-10-13T21:53:59.170Z,95354.94
2022-10-13T21:56:28.841Z,95354.47
2022-10-13T21:58:56.031Z,95356.34
2022-10-13T22:01:24.005Z,95359.59
2022-10-13T22:03:54.889Z,95361.06
2022-10-13T22:06:26.263Z,95357.47
2022-10-13T22:08:55.105Z,95359.75
2022-10-13T22:11:24.318Z,95360.34
2022-10-13T22:13:51.103Z,95347.47
2022-10-13T22:16:21.777Z,95347.19
2022-10-13T22:18:50.871Z,95356.06
2022-10-13T22:21:21.447Z,95352.81
2022-10-13T22:23:48.576Z,95349.72
2022-10-13T22:26:17.498Z,95355.59
2022-10-13T22:28:49.519Z,95355.38
2022-10-13T22:31:16.149Z,95351.69
2022-10-13T22:33:43.266Z,95344.09
2022-10-13T22:36:19.116Z,95343.28
2022-10-13T22:38:46.837Z,95338.78
2022-10-13T22:41:14.838Z,95342.97
2022-10-13T22:43:46.658Z,95334.28
2022-10-13T22:46:15.815Z,95328.44
2022-10-13T22:48:43.042Z,95320.53
2022-10-13T22:51:12.191Z,95319.44
2022-10-13T22:53:39.290Z,95321.44
2022-10-13T22:56:11.525Z,95315.28
2022-10-13T22:58:38.456Z,95309.31
2022-10-13T23:01:10.664Z,95301.13
2022-10-13T23:03:38.187Z,95303.09
2022-10-13T23:06:06.779Z,95303.09
2022-10-13T23:08:34.560Z,95303.38
2022-10-13T23:11:01.163Z,95297.28
2022-10-13T23:13:27.737Z,95295.50
2022-10-13T23:16:23.879Z,95295.78
2022-10-13T23:18:50.538Z,95291.03
2022-10-13T23:21:26.326Z,95287.50
2022-10-13T23:24:01.553Z,95292.03
2022-10-13T23:26:29.187Z,95288.63
2022-10-13T23:28:57.198Z,95287.66
2022-10-13T23:31:24.026Z,95286.03
2022-10-13T23:33:51.293Z,95288.94
2022-10-13T23:36:20.596Z,95278.88
2022-10-13T23:39:14.491Z,95278.53
2022-10-13T23:41:41.063Z,95269.78
2022-10-13T23:44:07.591Z,95276.38
2022-10-13T23:46:34.258Z,95274.38
2022-10-13T23:49:00.792Z,95270.69
2022-10-13T23:51:27.557Z,95274.16
2022-10-13T23:53:54.929Z,95276.88
2022-10-13T23:56:22.158Z,95267.00
2022-10-13T23:58:49.102Z,95267.28
